Time,TemperatureF,DewpointF,PressureIn,WindDirection,WindDirectionDegrees,WindSpeedMPH,WindSpeedGustMPH,Humidity,HourlyPrecipIn,Conditions,Clouds,dailyrainin,SoftwareType,DateUTC
2013-02-07 00:02:00,31.4,27.0,30.23,East,81,2.0,3.0,84,0.00,,,0.00,weatherlink.com 1.10,2013-02-07 05:02:00,
2013-02-07 00:20:00,31.7,27.0,30.23,ENE,76,0.0,4.0,83,0.00,,,0.00,weatherlink.com 1.10,2013-02-07 05:20:00,
2013-02-07 00:38:00,31.7,27.0,30.24,ENE,64,1.0,3.0,83,0.00,,,0.00,weatherlink.com 1.10,2013-02-07 05:38:00,
2013-02-07 00:55:00,31.4,27.0,30.23,East,79,0.0,4.0,83,0.00,,,0.00,weatherlink.com 1.10,2013-02-07 05:55:00,
2013-02-07 01:13:00,30.9,27.0,30.23,East,83,1.0,3.0,84,0.00,,,0.00,weatherlink.com 1.10,2013-02-07 06:13:00,
2013-02-07 01:32:00,30.4,26.0,30.22,ENE,70,2.0,2.0,85,0.00,,,0.00,weatherlink.com 1.10,2013-02-07 06:32:00,
2013-02-07 01:48:00,30.0,26.0,30.20,ENE,63,3.0,4.0,86,0.00,,,0.00,weatherlink.com 1.10,2013-02-07 06:48:00,
2013-02-07 02:06:00,30.0,26.0,30.20,ENE,72,3.0,-999.0,86,-99.99,,,0.00,weatherlink.com 1.10,2013-02-07 07:06:00,
2013-02-07 02:25:00,30.1,26.0,30.20,East,86,1.0,3.0,86,0.00,,,0.00,weatherlink.com 1.10,2013-02-07 07:25:00,
2013-02-07 02:41:00,30.0,27.0,30.20,East,97,3.0,4.0,87,0.00,,,0.00,weatherlink.com 1.10,2013-02-07 07:41:00,
2013-02-07 03:00:00,30.0,27.0,30.21,ESE,105,1.0,2.0,87,0.00,,,0.00,weatherlink.com 1.10,2013-02-07 08:00:00,
2013-02-07 03:18:00,29.9,27.0,30.20,ENE,73,2.0,2.0,88,0.00,,,0.00,weatherlink.com 1.10,2013-02-07 08:18:00,
2013-02-07 03:35:00,29.7,27.0,30.19,East,89,2.0,3.0,88,0.00,,,0.00,weatherlink.com 1.10,2013-02-07 08:35:00,
2013-02-07 03:53:00,29.7,27.0,30.19,East,91,2.0,3.0,88,0.00,,,0.00,weatherlink.com 1.10,2013-02-07 08:53:00,
2013-02-07 04:10:00,29.8,27.0,30.19,East,83,3.0,3.0,89,0.00,,,0.00,weatherlink.com 1.10,2013-02-07 09:10:00,
2013-02-07 04:29:00,30.2,27.0,30.19,ENE,77,3.0,3.0,89,0.00,,,0.00,weatherlink.com 1.10,2013-02-07 09:29:00,
2013-02-07 04:46:00,30.5,27.0,30.19,East,87,2.0,3.0,88,0.00,,,0.00,weatherlink.com 1.10,2013-02-07 09:46:00,
2013-02-07 05:04:00,30.5,27.0,30.18,East,84,3.0,3.0,88,0.00,,,0.00,weatherlink.com 1.10,2013-02-07 10:04:00,
2013-02-07 05:23:00,30.7,28.0,30.18,East,86,2.0,3.0,88,0.00,,,0.00,weatherlink.com 1.10,2013-02-07 10:23:00,
2013-02-07 05:40:00,30.8,28.0,30.18,ENE,68,3.0,4.0,88,0.00,,,0.00,weatherlink.com 1.10,2013-02-07 10:40:00,
2013-02-07 05:58:00,31.0,28.0,30.17,East,84,2.0,4.0,88,0.00,,,0.00,weatherlink.com 1.10,2013-02-07 10:58:00,
2013-02-07 06:15:00,31.0,28.0,30.17,ENE,68,2.0,4.0,88,0.00,,,0.00,weatherlink.com 1.10,2013-02-07 11:15:00,
2013-02-07 06:34:00,30.9,28.0,30.17,ESE,107,1.0,4.0,88,0.00,,,0.00,weatherlink.com 1.10,2013-02-07 11:34:00,
2013-02-07 06:51:00,30.9,28.0,30.17,East,94,3.0,3.0,88,0.00,,,0.00,weatherlink.com 1.10,2013-02-07 11:51:00,
2013-02-07 07:09:00,30.8,28.0,30.15,ENE,66,2.0,3.0,88,0.00,,,0.00,weatherlink.com 1.10,2013-02-07 12:09:00,
2013-02-07 07:26:00,30.9,28.0,30.15,ESE,104,2.0,3.0,88,0.00,,,0.00,weatherlink.com 1.10,2013-02-07 12:26:00,
2013-02-07 07:45:00,31.0,28.0,30.15,ESE,114,1.0,3.0,88,0.00,,,0.00,weatherlink.com 1.10,2013-02-07 12:45:00,
2013-02-07 08:03:00,31.0,28.0,30.14,East,86,2.0,3.0,88,0.00,,,0.00,weatherlink.com 1.10,2013-02-07 13:03:00,
2013-02-07 08:20:00,31.3,28.0,30.14,East,86,3.0,3.0,88,0.00,,,0.00,weatherlink.com 1.10,2013-02-07 13:20:00,
2013-02-07 08:38:00,32.1,29.0,30.14,East,89,1.0,3.0,87,0.00,,,0.00,weatherlink.com 1.10,2013-02-07 13:38:00,
2013-02-07 08:56:00,33.0,29.0,30.14,ENE,63,3.0,3.0,85,0.00,,,0.00,weatherlink.com 1.10,2013-02-07 13:56:00,
2013-02-07 09:13:00,33.8,29.0,30.14,East,80,2.0,2.0,83,0.00,,,0.00,weatherlink.com 1.10,2013-02-07 14:13:00,
2013-02-07 09:31:00,34.8,30.0,30.14,East,86,3.0,4.0,82,0.00,,,0.00,weatherlink.com 1.10,2013-02-07 14:31:00,
2013-02-07 09:49:00,36.9,30.0,30.13,East,83,4.0,4.0,77,0.00,,,0.00,weatherlink.com 1.10,2013-02-07 14:49:00,
2013-02-07 10:08:00,38.6,31.0,30.12,East,101,3.0,7.0,74,0.00,,,0.00,weatherlink.com 1.10,2013-02-07 15:08:00,
2013-02-07 10:24:00,39.0,31.0,30.12,ENE,70,2.0,4.0,73,0.00,,,0.00,weatherlink.com 1.10,2013-02-07 15:24:00,
2013-02-07 10:43:00,41.2,32.0,30.11,SE,129,0.0,3.0,69,0.00,,,0.00,weatherlink.com 1.10,2013-02-07 15:43:00,
2013-02-07 11:01:00,42.7,32.0,30.11,ENE,65,2.0,4.0,66,0.00,,,0.00,weatherlink.com 1.10,2013-02-07 16:01:00,
2013-02-07 11:18:00,44.0,32.0,30.11,SW,229,1.0,3.0,63,0.00,,,0.00,weatherlink.com 1.10,2013-02-07 16:18:00,
2013-02-07 11:36:00,45.4,32.0,30.10,East,87,1.0,4.0,61,0.00,,,0.00,weatherlink.com 1.10,2013-02-07 16:36:00,
2013-02-07 11:54:00,46.7,33.0,30.09,ESE,114,0.0,4.0,60,0.00,,,0.00,weatherlink.com 1.10,2013-02-07 16:54:00,
2013-02-07 12:12:00,48.3,32.0,30.08,SSE,161,5.0,6.0,54,0.00,,,0.00,weatherlink.com 1.10,2013-02-07 17:12:00,
2013-02-07 12:30:00,49.6,34.0,30.07,SSE,158,0.0,4.0,55,0.00,,,0.00,weatherlink.com 1.10,2013-02-07 17:30:00,
2013-02-07 12:47:00,50.6,33.0,30.05,NE,49,2.0,3.0,51,0.00,,,0.00,weatherlink.com 1.10,2013-02-07 17:47:00,
2013-02-07 13:05:00,52.6,33.0,30.04,WNW,283,0.0,5.0,47,0.00,,,0.00,weatherlink.com 1.10,2013-02-07 18:05:00,
2013-02-07 13:23:00,53.7,34.0,30.02,SW,218,0.0,3.0,48,0.00,,,0.00,weatherlink.com 1.10,2013-02-07 18:23:00,
2013-02-07 13:40:00,54.6,33.0,30.01,NNE,21,0.0,4.0,44,0.00,,,0.00,weatherlink.com 1.10,2013-02-07 18:40:00,
2013-02-07 13:58:00,56.3,34.0,30.00,SE,140,1.0,5.0,43,0.00,,,0.00,weatherlink.com 1.10,2013-02-07 18:58:00,
2013-02-07 14:16:00,56.7,34.0,29.99,East,89,3.0,7.0,43,0.00,,,0.00,weatherlink.com 1.10,2013-02-07 19:16:00,
2013-02-07 14:34:00,57.7,36.0,29.99,SW,231,4.0,4.0,44,0.00,,,0.00,weatherlink.com 1.10,2013-02-07 19:34:00,
2013-02-07 14:51:00,57.8,35.0,29.97,ENE,68,4.0,4.0,42,0.00,,,0.00,weatherlink.com 1.10,2013-02-07 19:51:00,
2013-02-07 15:09:00,59.1,35.0,29.96,West,270,1.0,5.0,41,0.00,,,0.00,weatherlink.com 1.10,2013-02-07 20:09:00,
2013-02-07 15:28:00,59.3,34.0,29.96,ESE,108,1.0,9.0,39,0.00,,,0.00,weatherlink.com 1.10,2013-02-07 20:28:00,
2013-02-07 15:45:00,59.7,37.0,29.96,SW,216,0.0,5.0,43,0.00,,,0.00,weatherlink.com 1.10,2013-02-07 20:45:00,
2013-02-07 16:03:00,60.1,36.0,29.95,ESE,110,1.0,5.0,40,0.00,,,0.00,weatherlink.com 1.10,2013-02-07 21:03:00,
2013-02-07 16:21:00,59.7,36.0,29.94,SSE,147,1.0,4.0,42,0.00,,,0.00,weatherlink.com 1.10,2013-02-07 21:21:00,
2013-02-07 16:38:00,59.6,36.0,29.93,SSW,193,2.0,3.0,42,0.00,,,0.00,weatherlink.com 1.10,2013-02-07 21:38:00,
2013-02-07 16:56:00,59.2,36.0,29.92,NNW,347,1.0,3.0,43,0.00,,,0.00,weatherlink.com 1.10,2013-02-07 21:56:00,
2013-02-07 17:14:00,58.6,37.0,29.91,ESE,115,2.0,3.0,44,0.00,,,0.00,weatherlink.com 1.10,2013-02-07 22:14:00,
2013-02-07 17:32:00,57.0,36.0,29.91,East,83,2.0,2.0,46,0.00,,,0.00,weatherlink.com 1.10,2013-02-07 22:32:00,
2013-02-07 17:50:00,55.4,36.0,29.91,ENE,73,2.0,2.0,49,0.00,,,0.00,weatherlink.com 1.10,2013-02-07 22:50:00,
2013-02-07 18:08:00,53.9,37.0,29.91,East,87,1.0,2.0,53,0.00,,,0.00,weatherlink.com 1.10,2013-02-07 23:08:00,
2013-02-07 18:43:00,52.1,37.0,29.90,ENE,72,1.0,1.0,56,0.00,,,0.00,weatherlink.com 1.10,2013-02-07 23:43:00,
2013-02-07 19:01:00,51.7,37.0,29.90,SW,231,2.0,2.0,57,0.00,,,0.00,weatherlink.com 1.10,2013-02-08 00:01:00,
2013-02-07 19:18:00,49.8,37.0,29.90,East,101,0.0,4.0,61,0.00,,,0.00,weatherlink.com 1.10,2013-02-08 00:18:00,
2013-02-07 19:36:00,50.1,37.0,29.90,ESE,104,1.0,2.0,61,0.00,,,0.00,weatherlink.com 1.10,2013-02-08 00:36:00,
2013-02-07 19:55:00,50.4,37.0,29.89,ESE,119,1.0,2.0,61,0.00,,,0.00,weatherlink.com 1.10,2013-02-08 00:55:00,
2013-02-07 20:13:00,50.4,37.0,29.88,SE,138,0.0,1.0,61,0.00,,,0.00,weatherlink.com 1.10,2013-02-08 01:13:00,
2013-02-07 20:30:00,50.5,38.0,29.87,East,98,2.0,2.0,62,0.00,,,0.00,weatherlink.com 1.10,2013-02-08 01:30:00,
2013-02-07 20:48:00,50.9,39.0,29.86,SE,134,1.0,2.0,63,0.00,,,0.00,weatherlink.com 1.10,2013-02-08 01:48:00,
2013-02-07 21:06:00,51.2,39.0,29.86,SSE,153,1.0,2.0,64,0.00,,,0.00,weatherlink.com 1.10,2013-02-08 02:06:00,
2013-02-07 21:23:00,51.9,40.0,29.86,South,172,2.0,4.0,65,0.00,,,0.00,weatherlink.com 1.10,2013-02-08 02:23:00,
2013-02-07 21:41:00,51.2,44.0,29.85,SE,141,2.0,4.0,75,0.01,,,0.01,weatherlink.com 1.10,2013-02-08 02:41:00,
2013-02-07 21:59:00,50.0,44.0,29.84,ESE,122,1.0,1.0,81,0.01,,,0.01,weatherlink.com 1.10,2013-02-08 02:59:00,
2013-02-07 22:16:00,49.6,44.0,29.84,SSE,161,1.0,2.0,82,0.01,,,0.01,weatherlink.com 1.10,2013-02-08 03:16:00,
2013-02-07 22:34:00,48.3,45.0,29.87,West,280,4.0,6.0,89,0.03,,,0.03,weatherlink.com 1.10,2013-02-08 03:34:00,
2013-02-07 22:53:00,47.5,45.0,29.86,West,266,1.0,5.0,92,0.06,,,0.07,weatherlink.com 1.10,2013-02-08 03:53:00,
2013-02-07 23:11:00,47.0,45.0,29.86,SW,218,0.0,3.0,94,0.08,,,0.09,weatherlink.com 1.10,2013-02-08 04:11:00,
2013-02-07 23:28:00,46.8,46.0,29.86,SSW,211,0.0,1.0,95,0.10,,,0.13,weatherlink.com 1.10,2013-02-08 04:28:00,
2013-02-07 23:46:00,46.7,45.0,29.86,SSW,204,1.0,2.0,95,0.09,,,0.15,weatherlink.com 1.10,2013-02-08 04:46:00,